Time;durP1;ratioP1;P1;durP2;ratioP2;P2;SDS_P1;SDS_P2;PMS_P1;PMS_P2;Temp;Humidity;BMP_temperature;BMP_pressure;BME280_temperature;BME280_humidity;BME280_pressure;Samples;Min_cycle;Max_cycle;Signal;HPM_P1;HPM_P2
2023/10/07 00:00:28;;;;;;;12.90;8.33;;;;;;;;;;5009632;28;20207;-78
2023/10/07 00:02:59;;;;;;;9.87;7.33;;;;;;;;;;5011693;28;20186;-78
2023/10/07 00:05:32;;;;;;;12.17;7.77;;;;;;;;;;5012877;28;20184;-77
2023/10/07 00:08:01;;;;;;;13.57;7.83;;;;;;;;;;5015567;28;20190;-78
2023/10/07 00:10:28;;;;;;;11.83;8.23;;;;;;;;;;5015613;28;20211;-78
2023/10/07 00:12:57;;;;;;;12.73;8.00;;;;;;;;;;5009157;28;20281;-79
2023/10/07 00:15:30;;;;;;;12.23;8.13;;;;;;;;;;5009004;28;20195;-78
2023/10/07 00:18:10;;;;;;;12.63;8.37;;;;;;;;;;5012703;28;20199;-78
2023/10/07 00:20:39;;;;;;;14.40;8.77;;;;;;;;;;4989812;28;20250;-77
2023/10/07 00:23:09;;;;;;;12.73;8.23;;;;;;;;;;5011316;28;20210;-78
2023/10/07 00:25:38;;;;;;;14.47;8.87;;;;;;;;;;5007550;28;20192;-78
2023/10/07 00:28:09;;;;;;;13.47;8.70;;;;;;;;;;4994898;28;20609;-78
2023/10/07 00:30:35;;;;;;;13.63;7.97;;;;;;;;;;5004522;28;20203;-78
2023/10/07 00:33:03;;;;;;;12.47;8.17;;;;;;;;;;5011802;28;20211;-78
2023/10/07 00:35:29;;;;;;;14.90;8.50;;;;;;;;;;5009384;28;20187;-79
2023/10/07 00:37:58;;;;;;;14.53;8.27;;;;;;;;;;4993667;28;20758;-78
2023/10/07 00:40:33;;;;;;;16.53;8.80;;;;;;;;;;5011549;28;20209;-78
2023/10/07 00:42:59;;;;;;;14.47;8.30;;;;;;;;;;5005641;28;20650;-78
2023/10/07 00:45:25;;;;;;;13.40;8.00;;;;;;;;;;5000564;28;20203;-79
2023/10/07 00:47:53;;;;;;;16.57;8.83;;;;;;;;;;5014031;28;20191;-78
2023/10/07 00:50:22;;;;;;;14.90;8.87;;;;;;;;;;4997463;28;20218;-78
2023/10/07 00:52:57;;;;;;;12.37;7.90;;;;;;;;;;5005107;28;20241;-78
2023/10/07 00:55:30;;;;;;;11.50;7.97;;;;;;;;;;5007113;28;20187;-78
2023/10/07 01:00:46;;;;;;;11.17;7.43;;;;;;;;;;5004424;28;20222;-78
2023/10/07 01:03:17;;;;;;;13.50;7.53;;;;;;;;;;4985943;28;20274;-77
2023/10/07 01:08:35;;;;;;;12.30;7.70;;;;;;;;;;4989836;28;20225;-78
2023/10/07 01:11:39;;;;;;;12.57;7.40;;;;;;;;;;5013278;28;20276;-77
2023/10/07 01:13:56;;;;;;;12.80;7.87;;;;;;;;;;4971897;28;20254;-77
2023/10/07 01:16:42;;;;;;;12.90;8.00;;;;;;;;;;5010054;28;20275;-78
2023/10/07 01:21:55;;;;;;;12.10;7.80;;;;;;;;;;4990416;28;20203;-77
2023/10/07 01:29:59;;;;;;;11.20;7.07;;;;;;;;;;5016871;28;20183;-77
2023/10/07 01:32:32;;;;;;;9.60;6.53;;;;;;;;;;4988678;28;20184;-78
2023/10/07 01:35:00;;;;;;;15.83;7.90;;;;;;;;;;5006230;28;20183;-78
2023/10/07 01:37:36;;;;;;;13.77;7.70;;;;;;;;;;5008628;28;20183;-78
2023/10/07 01:40:03;;;;;;;13.13;7.33;;;;;;;;;;4990730;28;20365;-77
2023/10/07 01:42:43;;;;;;;14.50;8.27;;;;;;;;;;5003529;28;20668;-78
2023/10/07 01:45:11;;;;;;;14.60;8.87;;;;;;;;;;5006267;28;20194;-78
2023/10/07 01:47:39;;;;;;;12.60;7.73;;;;;;;;;;5013114;28;20415;-77
2023/10/07 01:50:11;;;;;;;14.03;8.53;;;;;;;;;;5010251;28;20361;-77
2023/10/07 01:52:42;;;;;;;13.53;8.10;;;;;;;;;;4962617;28;20633;-79
2023/10/07 01:55:09;;;;;;;13.37;7.77;;;;;;;;;;5011680;28;20226;-78
2023/10/07 01:57:35;;;;;;;14.97;8.13;;;;;;;;;;4994873;28;20186;-78
2023/10/07 02:00:07;;;;;;;11.60;7.17;;;;;;;;;;4992236;28;20203;-78
2023/10/07 02:02:51;;;;;;;16.33;8.00;;;;;;;;;;5007538;28;20189;-78
2023/10/07 02:05:25;;;;;;;12.00;7.63;;;;;;;;;;5009490;28;20199;-77
2023/10/07 02:07:54;;;;;;;10.90;6.77;;;;;;;;;;4994326;28;20193;-78
2023/10/07 02:10:26;;;;;;;13.30;7.10;;;;;;;;;;5013811;28;20525;-81
2023/10/07 02:12:55;;;;;;;8.83;6.50;;;;;;;;;;5011400;28;20551;-77
2023/10/07 02:15:24;;;;;;;11.87;7.27;;;;;;;;;;4999826;28;20185;-77
2023/10/07 02:17:56;;;;;;;13.27;7.03;;;;;;;;;;4994438;28;20214;-78
2023/10/07 02:20:38;;;;;;;11.90;7.13;;;;;;;;;;4992364;28;20215;-78
2023/10/07 02:23:15;;;;;;;10.33;7.00;;;;;;;;;;4991762;28;20644;-78
2023/10/07 02:25:42;;;;;;;12.07;7.43;;;;;;;;;;4989478;28;20191;-78
2023/10/07 02:28:09;;;;;;;12.57;7.43;;;;;;;;;;4980110;28;20590;-78
2023/10/07 02:30:39;;;;;;;13.47;7.30;;;;;;;;;;5015047;28;20207;-79
2023/10/07 02:33:13;;;;;;;13.37;7.53;;;;;;;;;;4996145;28;20592;-79
2023/10/07 02:35:39;;;;;;;13.83;8.07;;;;;;;;;;5010896;28;20556;-79
2023/10/07 02:38:06;;;;;;;14.67;8.23;;;;;;;;;;5011606;28;20211;-77
2023/10/07 02:40:36;;;;;;;12.77;7.80;;;;;;;;;;4980002;28;20240;-78
2023/10/07 02:43:09;;;;;;;14.83;8.10;;;;;;;;;;5002365;28;20279;-78
2023/10/07 02:45:44;;;;;;;16.37;7.50;;;;;;;;;;5009916;28;20179;-78
2023/10/07 02:48:11;;;;;;;11.00;7.10;;;;;;;;;;5011643;28;20189;-77
2023/10/07 02:50:42;;;;;;;11.77;6.83;;;;;;;;;;5008751;28;20211;-77
2023/10/07 02:53:14;;;;;;;15.30;6.70;;;;;;;;;;4998252;28;20698;-78
2023/10/07 02:55:47;;;;;;;11.10;6.20;;;;;;;;;;4994154;28;20272;-77
2023/10/07 02:58:27;;;;;;;12.50;6.97;;;;;;;;;;5010879;28;20339;-77
2023/10/07 03:00:58;;;;;;;11.50;6.87;;;;;;;;;;5012558;28;20749;-78
2023/10/07 03:06:00;;;;;;;12.03;7.30;;;;;;;;;;4988643;28;20258;-79
2023/10/07 03:08:40;;;;;;;13.70;7.60;;;;;;;;;;4995537;28;20441;-77
2023/10/07 03:11:39;;;;;;;12.87;7.83;;;;;;;;;;4997752;28;20259;-77
2023/10/07 03:14:06;;;;;;;13.60;7.50;;;;;;;;;;5021229;28;20277;-77
2023/10/07 03:16:47;;;;;;;15.87;7.77;;;;;;;;;;5015396;28;20210;-77
2023/10/07 03:19:23;;;;;;;14.83;8.10;;;;;;;;;;5016056;28;20660;-78
2023/10/07 03:24:28;;;;;;;13.03;7.63;;;;;;;;;;5014994;28;20664;-78
2023/10/07 03:27:05;;;;;;;14.80;8.03;;;;;;;;;;5012338;28;20175;-78
2023/10/07 03:29:36;;;;;;;13.93;7.73;;;;;;;;;;5014676;28;20207;-79
2023/10/07 03:32:12;;;;;;;17.10;8.27;;;;;;;;;;5015163;28;20191;-78
2023/10/07 03:34:40;;;;;;;14.27;7.40;;;;;;;;;;5005628;28;20183;-78
2023/10/07 03:42:20;;;;;;;11.33;7.23;;;;;;;;;;5012489;28;20183;-78
2023/10/07 03:44:46;;;;;;;8.77;6.30;;;;;;;;;;4992984;28;20202;-77
2023/10/07 03:47:15;;;;;;;10.63;6.80;;;;;;;;;;5013518;28;20550;-79
2023/10/07 03:49:41;;;;;;;11.10;6.30;;;;;;;;;;5017291;28;20260;-78
2023/10/07 03:52:08;;;;;;;10.40;7.00;;;;;;;;;;5017189;28;20195;-77
2023/10/07 03:54:40;;;;;;;14.47;7.30;;;;;;;;;;5010421;28;20185;-78
2023/10/07 03:57:09;;;;;;;11.53;6.50;;;;;;;;;;5008088;28;20203;-77
2023/10/07 03:59:36;;;;;;;10.03;6.10;;;;;;;;;;4992204;28;20549;-77
2023/10/07 04:04:55;;;;;;;11.67;6.60;;;;;;;;;;4988623;28;20194;-77
2023/10/07 04:07:21;;;;;;;10.03;5.97;;;;;;;;;;5013492;28;20190;-78
2023/10/07 04:09:47;;;;;;;10.30;6.87;;;;;;;;;;4995724;28;20509;-78
2023/10/07 04:12:14;;;;;;;13.67;7.53;;;;;;;;;;5014484;28;20232;-77
2023/10/07 04:14:42;;;;;;;13.13;7.43;;;;;;;;;;5014933;28;20184;-78
2023/10/07 04:17:11;;;;;;;13.67;7.97;;;;;;;;;;5015814;28;20195;-77
2023/10/07 04:19:42;;;;;;;12.47;7.50;;;;;;;;;;4974715;28;20336;-78
2023/10/07 04:22:09;;;;;;;11.23;7.17;;;;;;;;;;5014197;28;20551;-77
2023/10/07 04:24:38;;;;;;;10.57;7.20;;;;;;;;;;5012575;28;20225;-77
2023/10/07 04:27:05;;;;;;;10.27;6.20;;;;;;;;;;4993623;28;20226;-77
2023/10/07 04:29:32;;;;;;;14.87;8.07;;;;;;;;;;5016820;28;20268;-77
2023/10/07 04:32:12;;;;;;;13.73;7.40;;;;;;;;;;5003493;28;20717;-78
2023/10/07 04:35:06;;;;;;;12.43;7.60;;;;;;;;;;5019885;28;20210;-77
2023/10/07 04:37:38;;;;;;;11.80;6.80;;;;;;;;;;5007094;28;20194;-77
2023/10/07 04:42:39;;;;;;;12.77;8.07;;;;;;;;;;5009887;28;20206;-78
2023/10/07 04:45:35;;;;;;;12.30;7.80;;;;;;;;;;5010163;28;20219;-78
2023/10/07 04:48:23;;;;;;;12.67;7.50;;;;;;;;;;4995773;28;20638;-78
2023/10/07 04:51:03;;;;;;;16.47;9.07;;;;;;;;;;5005641;28;20207;-78
2023/10/07 04:53:38;;;;;;;15.13;9.20;;;;;;;;;;5009037;28;20182;-77
2023/10/07 04:56:04;;;;;;;18.57;9.70;;;;;;;;;;5014365;28;20183;-78
2023/10/07 04:58:30;;;;;;;21.57;9.60;;;;;;;;;;5011684;28;20218;-78
2023/10/07 05:01:04;;;;;;;17.97;9.53;;;;;;;;;;5009470;28;20238;-77
2023/10/07 05:03:31;;;;;;;16.00;8.97;;;;;;;;;;4993825;28;20215;-78
2023/10/07 05:05:58;;;;;;;17.93;9.30;;;;;;;;;;5005875;28;20233;-78
2023/10/07 05:08:27;;;;;;;14.20;7.93;;;;;;;;;;5013367;28;20189;-79
2023/10/07 05:10:54;;;;;;;19.00;10.23;;;;;;;;;;5017414;28;20215;-78
2023/10/07 05:13:21;;;;;;;18.00;9.97;;;;;;;;;;4987799;28;20789;-78
2023/10/07 05:15:47;;;;;;;18.40;9.13;;;;;;;;;;5012809;28;20191;-79
2023/10/07 05:18:16;;;;;;;16.17;8.87;;;;;;;;;;5016802;28;20206;-77
2023/10/07 05:20:46;;;;;;;21.20;10.57;;;;;;;;;;5013286;28;20347;-78
2023/10/07 05:23:17;;;;;;;23.93;12.00;;;;;;;;;;5003251;28;20198;-78
2023/10/07 05:25:51;;;;;;;19.83;11.20;;;;;;;;;;5009835;28;20219;-78
2023/10/07 05:28:20;;;;;;;20.87;10.90;;;;;;;;;;5010507;28;20560;-77
2023/10/07 05:30:53;;;;;;;19.40;9.80;;;;;;;;;;5006563;28;20207;-77
2023/10/07 05:33:24;;;;;;;16.53;9.20;;;;;;;;;;5006129;28;20273;-78
2023/10/07 05:35:51;;;;;;;22.83;10.13;;;;;;;;;;5003343;28;20175;-78
2023/10/07 05:38:20;;;;;;;21.63;11.23;;;;;;;;;;5008417;28;20222;-77
2023/10/07 05:40:47;;;;;;;16.90;10.07;;;;;;;;;;5007261;28;20242;-77
2023/10/07 05:43:13;;;;;;;18.77;10.23;;;;;;;;;;4985926;28;20199;-77
2023/10/07 05:45:40;;;;;;;18.30;10.37;;;;;;;;;;5009989;28;20273;-77
2023/10/07 05:48:10;;;;;;;23.80;12.03;;;;;;;;;;4985736;28;20187;-78
2023/10/07 05:50:38;;;;;;;15.53;9.13;;;;;;;;;;5007094;28;20286;-78
2023/10/07 05:53:05;;;;;;;27.27;13.13;;;;;;;;;;4989285;28;20199;-78
2023/10/07 05:55:36;;;;;;;28.83;15.07;;;;;;;;;;5003842;28;20472;-78
2023/10/07 05:58:02;;;;;;;24.13;12.93;;;;;;;;;;5003783;28;20214;-78
2023/10/07 06:00:32;;;;;;;30.50;14.57;;;;;;;;;;5003210;28;20233;-78
2023/10/07 06:03:05;;;;;;;29.13;14.33;;;;;;;;;;4982062;28;20195;-78
2023/10/07 06:05:33;;;;;;;23.67;12.20;;;;;;;;;;5004118;28;20176;-78
2023/10/07 06:07:59;;;;;;;22.53;12.27;;;;;;;;;;4985710;28;20187;-77
2023/10/07 06:10:26;;;;;;;20.13;10.60;;;;;;;;;;4981148;28;20218;-78
2023/10/07 06:12:56;;;;;;;15.40;8.97;;;;;;;;;;4964712;28;20927;-78
2023/10/07 06:15:25;;;;;;;21.67;10.30;;;;;;;;;;5007677;28;22067;-79
2023/10/07 06:17:52;;;;;;;25.00;12.67;;;;;;;;;;4984012;28;20261;-79
2023/10/07 06:20:26;;;;;;;33.40;15.10;;;;;;;;;;5005459;28;20548;-78
2023/10/07 06:22:56;;;;;;;23.43;11.97;;;;;;;;;;5007873;28;20183;-78
2023/10/07 06:25:33;;;;;;;16.77;9.73;;;;;;;;;;5016404;28;20207;-83
2023/10/07 06:27:59;;;;;;;13.83;8.37;;;;;;;;;;4997252;28;20234;-82
2023/10/07 06:30:26;;;;;;;15.60;9.00;;;;;;;;;;5004695;28;20261;-77
2023/10/07 06:32:56;;;;;;;12.23;8.13;;;;;;;;;;4987210;28;20241;-78
2023/10/07 06:35:23;;;;;;;16.17;8.50;;;;;;;;;;5004217;28;20191;-78
2023/10/07 06:37:51;;;;;;;16.07;9.20;;;;;;;;;;5006894;28;20289;-80
2023/10/07 06:40:30;;;;;;;15.67;9.60;;;;;;;;;;4986566;28;20639;-79
2023/10/07 06:42:58;;;;;;;14.07;8.10;;;;;;;;;;4986646;28;20194;-79
2023/10/07 06:45:35;;;;;;;14.33;8.63;;;;;;;;;;4989969;28;20202;-79
2023/10/07 06:48:08;;;;;;;14.23;8.23;;;;;;;;;;5001755;28;20197;-79
2023/10/07 06:50:34;;;;;;;15.10;8.03;;;;;;;;;;5007212;28;20273;-78
2023/10/07 06:53:01;;;;;;;14.93;7.77;;;;;;;;;;4987801;28;20601;-81
2023/10/07 06:55:28;;;;;;;11.77;7.70;;;;;;;;;;4984268;28;20187;-80
2023/10/07 06:57:56;;;;;;;14.00;7.83;;;;;;;;;;5002803;28;20239;-80
2023/10/07 07:00:37;;;;;;;13.80;7.57;;;;;;;;;;4986460;28;20203;-78
2023/10/07 07:03:09;;;;;;;14.63;7.93;;;;;;;;;;5006955;28;20180;-77
2023/10/07 07:05:36;;;;;;;13.70;8.70;;;;;;;;;;5008796;28;20206;-84
2023/10/07 07:08:04;;;;;;;14.43;7.57;;;;;;;;;;4983290;28;20202;-81
2023/10/07 07:10:31;;;;;;;13.67;8.07;;;;;;;;;;5014779;28;20199;-81
2023/10/07 07:13:13;;;;;;;14.57;7.90;;;;;;;;;;5016997;28;20585;-81
2023/10/07 07:15:41;;;;;;;12.00;7.47;;;;;;;;;;5015097;28;20186;-81
2023/10/07 07:23:40;;;;;;;16.43;8.50;;;;;;;;;;4956848;28;20294;-82
2023/10/07 07:26:10;;;;;;;13.43;8.10;;;;;;;;;;4998654;28;20220;-83
2023/10/07 07:28:43;;;;;;;12.60;7.40;;;;;;;;;;5005774;28;20182;-83
2023/10/07 07:31:19;;;;;;;12.80;7.43;;;;;;;;;;5017427;28;20650;-83
2023/10/07 07:33:50;;;;;;;14.53;7.90;;;;;;;;;;5006387;28;20322;-83
2023/10/07 07:36:39;;;;;;;14.37;7.47;;;;;;;;;;5007386;28;20182;-83
2023/10/07 07:39:08;;;;;;;15.07;8.60;;;;;;;;;;5017568;28;20211;-83
2023/10/07 07:41:35;;;;;;;15.00;7.93;;;;;;;;;;5006254;28;20205;-83
2023/10/07 07:44:08;;;;;;;13.43;7.90;;;;;;;;;;4978350;28;20224;-82
2023/10/07 07:46:54;;;;;;;11.47;7.13;;;;;;;;;;4989938;28;20189;-83
2023/10/07 07:49:21;;;;;;;13.47;7.73;;;;;;;;;;5002665;28;20187;-82
2023/10/07 07:51:51;;;;;;;12.67;7.57;;;;;;;;;;4981652;28;20204;-83
2023/10/07 07:54:18;;;;;;;14.13;7.40;;;;;;;;;;5013675;28;20447;-83
2023/10/07 07:56:48;;;;;;;13.53;7.23;;;;;;;;;;4988782;28;20191;-83
2023/10/07 07:59:15;;;;;;;12.07;7.17;;;;;;;;;;4996183;28;20229;-83
2023/10/07 08:01:45;;;;;;;14.27;8.27;;;;;;;;;;4964561;28;20234;-82
2023/10/07 08:04:17;;;;;;;13.63;7.17;;;;;;;;;;5021439;28;20186;-83
2023/10/07 08:06:48;;;;;;;10.60;7.00;;;;;;;;;;5015855;28;20199;-83
2023/10/07 08:09:19;;;;;;;14.10;7.57;;;;;;;;;;5003844;28;20256;-82
2023/10/07 08:11:46;;;;;;;14.50;7.87;;;;;;;;;;5013170;28;20292;-83
2023/10/07 08:14:12;;;;;;;12.37;7.03;;;;;;;;;;5002598;28;20183;-83
2023/10/07 08:16:50;;;;;;;13.73;8.10;;;;;;;;;;4990592;28;20194;-83
2023/10/07 08:19:20;;;;;;;12.10;7.07;;;;;;;;;;5023371;28;20218;-83
2023/10/07 08:21:53;;;;;;;11.70;7.33;;;;;;;;;;5005354;28;20564;-83
2023/10/07 08:24:20;;;;;;;14.43;7.50;;;;;;;;;;5001454;28;20240;-83
2023/10/07 08:26:59;;;;;;;12.97;7.67;;;;;;;;;;5001120;28;20190;-82
2023/10/07 08:29:32;;;;;;;12.57;7.10;;;;;;;;;;4991649;28;20268;-83
2023/10/07 08:32:28;;;;;;;13.27;6.87;;;;;;;;;;4988108;28;20704;-83
2023/10/07 08:34:59;;;;;;;10.67;6.37;;;;;;;;;;4997267;28;20179;-83
2023/10/07 08:37:32;;;;;;;13.83;7.33;;;;;;;;;;5018266;28;20209;-83
2023/10/07 08:40:10;;;;;;;14.00;7.90;;;;;;;;;;5015962;28;20315;-83
2023/10/07 08:42:43;;;;;;;14.63;7.33;;;;;;;;;;5013783;28;20551;-82
2023/10/07 08:45:14;;;;;;;12.20;6.80;;;;;;;;;;4998018;28;20191;-82
2023/10/07 08:47:49;;;;;;;14.57;8.03;;;;;;;;;;5003926;28;20688;-82
2023/10/07 08:50:18;;;;;;;14.43;7.60;;;;;;;;;;5007248;28;20297;-83
2023/10/07 08:52:45;;;;;;;12.10;7.07;;;;;;;;;;5017979;28;20198;-83
2023/10/07 08:55:11;;;;;;;11.17;6.53;;;;;;;;;;5007409;28;20336;-82
2023/10/07 08:57:37;;;;;;;13.00;7.07;;;;;;;;;;5016974;28;20179;-83
2023/10/07 09:00:11;;;;;;;13.07;6.97;;;;;;;;;;4984665;28;20207;-83
2023/10/07 09:02:40;;;;;;;10.67;6.80;;;;;;;;;;5021783;28;20186;-83
2023/10/07 09:05:16;;;;;;;13.37;7.30;;;;;;;;;;5022993;28;20273;-82
2023/10/07 09:07:48;;;;;;;11.90;7.40;;;;;;;;;;4990215;28;20179;-83
2023/10/07 09:10:19;;;;;;;11.73;7.10;;;;;;;;;;4993380;28;20202;-83
2023/10/07 09:12:46;;;;;;;11.23;6.83;;;;;;;;;;4984527;28;20613;-83
2023/10/07 09:15:25;;;;;;;13.50;7.47;;;;;;;;;;5006181;28;20188;-82
2023/10/07 09:17:59;;;;;;;16.47;8.20;;;;;;;;;;4978063;28;20184;-82
2023/10/07 09:20:31;;;;;;;12.03;7.40;;;;;;;;;;5018748;28;20216;-83
2023/10/07 09:23:07;;;;;;;13.87;7.57;;;;;;;;;;4991148;28;20195;-82
2023/10/07 09:25:33;;;;;;;14.00;7.33;;;;;;;;;;4999584;28;20210;-82
2023/10/07 09:28:01;;;;;;;12.40;7.63;;;;;;;;;;4999396;28;20218;-83
2023/10/07 09:33:13;;;;;;;15.43;8.40;;;;;;;;;;5002056;28;20198;-83
2023/10/07 09:35:42;;;;;;;12.90;7.57;;;;;;;;;;4999900;28;20631;-83
2023/10/07 09:38:12;;;;;;;12.33;7.27;;;;;;;;;;5000814;28;20249;-82
2023/10/07 09:43:27;;;;;;;12.30;7.07;;;;;;;;;;4997731;28;20200;-83
2023/10/07 09:45:54;;;;;;;11.43;6.43;;;;;;;;;;5008097;28;20699;-83
2023/10/07 09:48:33;;;;;;;11.90;6.67;;;;;;;;;;5024530;28;20238;-83
2023/10/07 09:51:01;;;;;;;10.03;6.53;;;;;;;;;;4997676;28;20238;-83
2023/10/07 09:53:36;;;;;;;9.70;6.27;;;;;;;;;;4990612;28;20183;-83
2023/10/07 09:56:21;;;;;;;11.70;7.00;;;;;;;;;;4990132;28;20210;-83
2023/10/07 09:59:07;;;;;;;10.40;6.87;;;;;;;;;;4999166;28;20209;-82
2023/10/07 10:01:45;;;;;;;11.13;6.57;;;;;;;;;;5022975;28;20286;-82
2023/10/07 10:04:24;;;;;;;9.37;6.10;;;;;;;;;;4993529;28;20194;-82
2023/10/07 10:07:06;;;;;;;10.63;6.60;;;;;;;;;;4983403;28;20606;-82
2023/10/07 10:10:00;;;;;;;10.63;6.47;;;;;;;;;;5012876;28;20191;-83
2023/10/07 10:12:38;;;;;;;12.50;6.37;;;;;;;;;;5007668;28;20256;-83
2023/10/07 10:17:55;;;;;;;10.40;6.33;;;;;;;;;;5013410;28;20190;-82
2023/10/07 10:20:27;;;;;;;12.27;6.87;;;;;;;;;;5013714;28;20270;-83
2023/10/07 10:22:57;;;;;;;10.77;6.43;;;;;;;;;;4962153;28;20746;-83
2023/10/07 10:28:02;;;;;;;13.13;7.07;;;;;;;;;;4998327;28;20219;-82
2023/10/07 10:30:28;;;;;;;10.77;6.40;;;;;;;;;;5001117;28;20232;-82
2023/10/07 10:32:57;;;;;;;9.20;6.10;;;;;;;;;;4999709;28;20237;-83
2023/10/07 10:35:25;;;;;;;12.30;6.27;;;;;;;;;;5001799;28;20198;-82
2023/10/07 10:37:55;;;;;;;10.27;6.43;;;;;;;;;;5019878;28;20282;-81
2023/10/07 10:40:21;;;;;;;12.87;6.30;;;;;;;;;;5000000;28;20202;-84
2023/10/07 10:42:48;;;;;;;11.53;6.70;;;;;;;;;;5002623;28;20214;-82
2023/10/07 10:45:22;;;;;;;11.67;6.50;;;;;;;;;;5002151;28;20186;-82
2023/10/07 10:47:50;;;;;;;9.30;5.73;;;;;;;;;;5024741;28;20213;-85
2023/10/07 10:50:17;;;;;;;10.80;6.40;;;;;;;;;;5003721;28;20206;-81
2023/10/07 10:52:49;;;;;;;9.90;5.63;;;;;;;;;;5026031;28;20187;-81
2023/10/07 10:55:16;;;;;;;10.37;6.17;;;;;;;;;;5001552;28;20206;-80
2023/10/07 10:57:42;;;;;;;9.87;6.10;;;;;;;;;;5023979;28;20189;-82
2023/10/07 11:00:24;;;;;;;11.20;6.10;;;;;;;;;;5002024;28;20286;-80
2023/10/07 11:02:51;;;;;;;8.93;5.97;;;;;;;;;;5002627;28;20185;-80
2023/10/07 11:05:18;;;;;;;11.20;6.63;;;;;;;;;;5020719;28;20179;-79
2023/10/07 11:07:47;;;;;;;9.53;5.80;;;;;;;;;;4998896;28;20195;-80
2023/10/07 11:10:23;;;;;;;13.17;5.87;;;;;;;;;;4983344;28;20297;-81
2023/10/07 11:12:52;;;;;;;9.13;6.03;;;;;;;;;;4983621;28;20291;-79
2023/10/07 11:15:24;;;;;;;10.00;5.47;;;;;;;;;;4997877;28;20197;-80
2023/10/07 11:17:56;;;;;;;9.77;5.67;;;;;;;;;;5024178;28;20186;-80
2023/10/07 11:20:25;;;;;;;11.07;5.57;;;;;;;;;;5024829;28;20202;-79
2023/10/07 11:22:53;;;;;;;9.93;5.57;;;;;;;;;;5028737;28;20201;-79
2023/10/07 11:25:19;;;;;;;8.77;5.70;;;;;;;;;;5024674;28;20182;-79
2023/10/07 11:27:48;;;;;;;10.13;6.27;;;;;;;;;;5020325;28;20187;-79
2023/10/07 11:30:15;;;;;;;9.37;5.17;;;;;;;;;;5023902;28;20233;-79
2023/10/07 11:32:43;;;;;;;9.23;5.10;;;;;;;;;;5019999;28;20234;-78
2023/10/07 11:35:27;;;;;;;8.63;5.00;;;;;;;;;;5024610;28;20197;-79
2023/10/07 11:37:57;;;;;;;7.90;4.97;;;;;;;;;;5018141;28;20179;-80
2023/10/07 11:40:24;;;;;;;9.20;4.63;;;;;;;;;;5028585;28;20198;-80
2023/10/07 11:42:51;;;;;;;7.33;4.70;;;;;;;;;;5019028;28;20217;-80
2023/10/07 11:45:18;;;;;;;9.13;5.10;;;;;;;;;;5020125;28;20179;-80
2023/10/07 11:47:44;;;;;;;8.83;4.97;;;;;;;;;;5023644;28;20211;-80
2023/10/07 11:50:11;;;;;;;7.10;4.40;;;;;;;;;;5023232;28;20230;-80
2023/10/07 11:52:40;;;;;;;8.70;4.90;;;;;;;;;;5021260;28;20206;-81
2023/10/07 11:55:10;;;;;;;10.53;4.90;;;;;;;;;;5004545;28;20179;-78
2023/10/07 11:57:37;;;;;;;5.63;4.37;;;;;;;;;;5020197;28;20185;-81
2023/10/07 12:00:22;;;;;;;8.10;4.50;;;;;;;;;;5005726;28;20218;-79
2023/10/07 12:02:49;;;;;;;6.77;4.40;;;;;;;;;;4981634;28;20179;-81
2023/10/07 12:05:15;;;;;;;7.37;4.80;;;;;;;;;;5028432;28;20182;-80
2023/10/07 12:07:42;;;;;;;8.50;5.07;;;;;;;;;;5030084;28;20187;-81
2023/10/07 12:10:15;;;;;;;7.40;4.73;;;;;;;;;;5008336;28;20208;-79
2023/10/07 12:12:45;;;;;;;9.00;4.50;;;;;;;;;;5002898;28;20192;-81
2023/10/07 12:15:15;;;;;;;7.47;4.70;;;;;;;;;;5024153;28;20186;-81
2023/10/07 12:17:45;;;;;;;9.43;4.37;;;;;;;;;;5023326;28;20266;-80
2023/10/07 12:20:20;;;;;;;7.87;4.30;;;;;;;;;;5020776;28;20730;-80
2023/10/07 12:22:46;;;;;;;9.00;3.90;;;;;;;;;;5023279;28;20179;-79
2023/10/07 12:25:16;;;;;;;6.37;4.10;;;;;;;;;;5023194;28;20275;-80
2023/10/07 12:27:45;;;;;;;8.10;4.00;;;;;;;;;;4999468;28;20632;-79
2023/10/07 12:30:14;;;;;;;9.73;4.37;;;;;;;;;;5005131;28;20246;-80
2023/10/07 12:32:41;;;;;;;5.13;3.73;;;;;;;;;;5022679;28;20187;-80
2023/10/07 12:35:11;;;;;;;6.73;4.17;;;;;;;;;;5008894;28;20184;-80
2023/10/07 12:37:38;;;;;;;7.30;4.30;;;;;;;;;;5017197;28;20233;-80
2023/10/07 12:40:10;;;;;;;8.10;3.97;;;;;;;;;;5005918;28;20555;-80
2023/10/07 12:42:36;;;;;;;7.67;4.40;;;;;;;;;;5016538;28;20255;-80
2023/10/07 12:45:02;;;;;;;6.57;4.00;;;;;;;;;;5020691;28;20215;-79
2023/10/07 12:47:30;;;;;;;6.77;4.23;;;;;;;;;;5024962;28;20285;-80
2023/10/07 12:49:56;;;;;;;5.87;4.10;;;;;;;;;;5020326;28;20199;-80
2023/10/07 12:52:26;;;;;;;7.80;4.13;;;;;;;;;;5025419;28;20188;-80
2023/10/07 12:54:52;;;;;;;6.03;4.00;;;;;;;;;;5019041;28;20183;-80
2023/10/07 12:57:18;;;;;;;5.47;3.70;;;;;;;;;;5024332;28;20209;-80
2023/10/07 12:59:47;;;;;;;8.57;4.07;;;;;;;;;;5013252;28;20214;-79
2023/10/07 13:02:17;;;;;;;7.07;4.20;;;;;;;;;;5024900;28;20228;-79
2023/10/07 13:04:49;;;;;;;6.23;4.03;;;;;;;;;;5016422;28;20178;-80
2023/10/07 13:07:17;;;;;;;6.53;4.20;;;;;;;;;;5019165;28;20186;-82
2023/10/07 13:09:46;;;;;;;6.33;4.00;;;;;;;;;;5003063;28;20190;-83
2023/10/07 13:12:15;;;;;;;5.87;3.90;;;;;;;;;;5016454;28;20187;-83
2023/10/07 13:14:41;;;;;;;5.93;3.67;;;;;;;;;;5019147;28;20601;-82
2023/10/07 13:17:07;;;;;;;7.33;3.60;;;;;;;;;;5000353;28;20270;-82
2023/10/07 13:19:37;;;;;;;8.90;3.90;;;;;;;;;;4993504;28;20587;-82
2023/10/07 13:22:05;;;;;;;5.50;3.83;;;;;;;;;;5010982;28;20694;-82
2023/10/07 13:24:32;;;;;;;7.00;4.00;;;;;;;;;;5015537;28;20184;-82
2023/10/07 13:26:58;;;;;;;5.97;4.03;;;;;;;;;;4999566;28;20187;-83
2023/10/07 13:29:24;;;;;;;6.83;3.80;;;;;;;;;;5018002;28;20198;-83
2023/10/07 13:31:53;;;;;;;8.40;4.20;;;;;;;;;;5015964;28;20248;-83
2023/10/07 13:34:21;;;;;;;6.40;4.00;;;;;;;;;;5018187;28;20278;-83
2023/10/07 13:36:48;;;;;;;6.07;3.97;;;;;;;;;;5020183;28;20239;-83
2023/10/07 13:39:17;;;;;;;5.00;3.93;;;;;;;;;;5021461;28;20207;-80
2023/10/07 13:41:47;;;;;;;6.23;3.83;;;;;;;;;;4977957;28;20228;-79
2023/10/07 13:44:15;;;;;;;6.27;4.00;;;;;;;;;;5003672;28;20671;-82
2023/10/07 13:46:42;;;;;;;4.73;3.53;;;;;;;;;;5021543;28;20187;-81
2023/10/07 13:49:09;;;;;;;6.40;3.90;;;;;;;;;;4996986;28;20206;-83
2023/10/07 13:51:40;;;;;;;5.23;3.77;;;;;;;;;;4981884;28;20835;-82
2023/10/07 13:56:55;;;;;;;7.37;3.50;;;;;;;;;;5016174;28;20189;-82
2023/10/07 13:59:22;;;;;;;6.10;3.60;;;;;;;;;;5016506;28;20206;-83
2023/10/07 14:01:51;;;;;;;5.70;3.47;;;;;;;;;;5014846;28;20251;-81
2023/10/07 14:04:20;;;;;;;5.13;3.33;;;;;;;;;;5009428;28;20258;-82
2023/10/07 14:06:47;;;;;;;4.90;3.40;;;;;;;;;;5014555;28;20202;-82
2023/10/07 14:09:24;;;;;;;6.33;3.63;;;;;;;;;;5016554;28;20196;-82
2023/10/07 14:11:51;;;;;;;5.40;3.70;;;;;;;;;;5001172;28;20203;-81
2023/10/07 14:14:18;;;;;;;5.50;3.67;;;;;;;;;;5000217;28;20651;-78
2023/10/07 14:16:44;;;;;;;5.73;4.10;;;;;;;;;;5014159;28;20186;-81
2023/10/07 14:19:10;;;;;;;5.37;3.63;;;;;;;;;;5005771;28;20214;-80
2023/10/07 14:21:38;;;;;;;7.43;4.00;;;;;;;;;;4997725;28;20206;-81
2023/10/07 14:24:04;;;;;;;9.00;4.03;;;;;;;;;;5011782;28;20536;-80
2023/10/07 14:26:32;;;;;;;5.97;4.00;;;;;;;;;;5018697;28;20231;-81
2023/10/07 14:29:06;;;;;;;6.30;3.87;;;;;;;;;;4985854;28;20190;-81
2023/10/07 14:31:33;;;;;;;5.53;3.73;;;;;;;;;;5020262;28;20215;-81
2023/10/07 14:34:07;;;;;;;8.73;3.77;;;;;;;;;;4998140;28;20199;-81
2023/10/07 14:36:39;;;;;;;7.40;4.00;;;;;;;;;;5017762;28;20211;-81
2023/10/07 14:39:11;;;;;;;5.50;3.83;;;;;;;;;;5016063;28;20295;-81
2023/10/07 14:41:39;;;;;;;5.20;3.83;;;;;;;;;;5016013;28;20634;-81
2023/10/07 14:44:05;;;;;;;4.90;3.70;;;;;;;;;;5018813;28;20261;-81
2023/10/07 14:46:31;;;;;;;7.43;4.23;;;;;;;;;;5021827;28;20210;-82
2023/10/07 14:48:57;;;;;;;7.33;4.13;;;;;;;;;;5021100;28;20205;-77
2023/10/07 14:51:23;;;;;;;7.10;4.00;;;;;;;;;;5025383;28;20220;-76
2023/10/07 14:53:50;;;;;;;6.27;3.57;;;;;;;;;;5020894;28;20187;-77
2023/10/07 14:56:26;;;;;;;5.73;3.70;;;;;;;;;;5023929;28;20265;-78
2023/10/07 14:58:52;;;;;;;8.27;3.73;;;;;;;;;;5026307;28;20211;-78
2023/10/07 15:01:22;;;;;;;5.90;3.90;;;;;;;;;;5021178;28;20201;-78
2023/10/07 15:03:50;;;;;;;6.40;4.10;;;;;;;;;;5018346;28;20545;-78
2023/10/07 15:06:16;;;;;;;5.63;3.73;;;;;;;;;;5021657;28;20182;-78
2023/10/07 15:08:45;;;;;;;6.83;3.73;;;;;;;;;;5021256;28;20211;-78
2023/10/07 15:11:18;;;;;;;8.87;4.23;;;;;;;;;;5018165;28;20244;-78
2023/10/07 15:13:45;;;;;;;6.67;3.97;;;;;;;;;;5016439;28;20191;-78
2023/10/07 15:16:12;;;;;;;6.90;4.17;;;;;;;;;;5025510;28;20206;-78
2023/10/07 15:18:39;;;;;;;6.57;4.03;;;;;;;;;;5010493;28;20215;-78
2023/10/07 15:21:05;;;;;;;6.63;4.07;;;;;;;;;;5011173;28;20266;-78
2023/10/07 15:23:31;;;;;;;6.17;3.97;;;;;;;;;;5014906;28;20210;-77
2023/10/07 15:25:57;;;;;;;6.23;3.97;;;;;;;;;;4995362;28;20218;-75
2023/10/07 15:28:23;;;;;;;7.87;3.73;;;;;;;;;;5008747;28;20191;-75
2023/10/07 15:30:50;;;;;;;6.83;3.90;;;;;;;;;;5012783;28;20785;-75
2023/10/07 15:33:16;;;;;;;6.90;4.10;;;;;;;;;;4996646;28;20553;-75
2023/10/07 15:35:47;;;;;;;5.87;3.80;;;;;;;;;;5013520;28;20189;-75
2023/10/07 15:38:14;;;;;;;7.30;3.90;;;;;;;;;;5007051;28;20261;-74
2023/10/07 15:40:41;;;;;;;5.60;3.83;;;;;;;;;;5011212;28;20203;-74